Weather observations for the past three days for
Appleton Municipal Airport
Imperial (Metric)
Date Time (cdt) Wind (mph) Vis. (mi.) Weather Sky Cond. Temperature (ºF) Relative Humidity Wind Chill (°F) Heat Index (°F) Pressure Precipitation (in)
Air Dwpt 6 hour altimeter (in) sea level (mb) 1 hr 3 hr 6 hr
Max. Min.
10 10:55 NE 9 G 17 10.00 Fair CLR 54.1 29.3 39% 30.17 0.0
10 10:35 N 12 G 16 10.00 Fair CLR 53.8 29.3 39% 30.16 0.0
10 10:15 N 12 G 17 10.00 Fair CLR 54.1 29.1 38% 30.16 0.0
10 09:55 NE 7 10.00 Fair CLR 52.7 28.9 40% 30.16 0.0
10 09:35 N 7 G 17 10.00 Fair CLR 52.7 28.9 40% 30.16 0.0
10 09:15 NE 14 10.00 Fair CLR 52.2 28.6 40% 30.15 0.0
10 08:55 NE 14 10.00 Fair CLR 51.6 29.1 42% 30.14 0.0
10 08:35 NE 15 10.00 Fair CLR 50.7 28.8 43% 30.14 0.0
10 08:15 NE 17 10.00 Fair CLR 50 29.1 45% 45 30.13 0.0
10 07:55 NE 9 10.00 Fair CLR 48 32 54% 44 30.12 0.0
10 07:35 NE 9 10.00 Fair CLR 46.4 32 57% 42 30.12 0.0
10 07:15 NE 10 10.00 Fair CLR 43.9 31.8 63% 39 30.11 0.0
10 06:55 Calm 10.00 Fair CLR 38.3 31.8 45 33.4 78% 30.1 0.0
10 06:35 NW 3 10.00 Fair CLR 37.2 30.9 78% 30.09 0.0
10 06:15 Calm 10.00 Fair CLR 34 29.7 84% 30.08 0.0
10 05:55 Calm 10.00 Fair CLR 36.9 30.4 77% 30.07 0.0
10 05:35 NW 3 10.00 Fair CLR 37.6 31.1 78% 30.07 0.0
10 05:15 Calm 10.00 Fair CLR 37.4 31.3 79% 30.06 0.0
10 04:55 Calm 9.00 Fair CLR 38.3 31.1 75% 30.06 0.0
10 04:35 Calm 9.00 A Few Clouds FEW095 37.9 31.3 77% 30.05 0.0
10 04:15 N 5 9.00 Mostly Cloudy BKN095 38.3 31.3 76% 35 30.05 0.0
10 03:55 SW 7 9.00 Overcast OVC095 41.2 32.7 72% 37 30.03 0.0
10 03:35 SW 8 10.00 Overcast OVC095 41.5 33.3 73% 37 30.03 0.0
10 03:15 SW 7 10.00 Overcast OVC095 41.4 32.4 70% 37 30.03 0.0
10 02:55 SW 7 10.00 Mostly Cloudy BKN095 41.2 31.8 69% 37 30.03 0.0
10 02:35 SW 5 10.00 Overcast OVC095 41.7 32.5 70% 39 30.03 0.0
10 02:15 W 6 10.00 Overcast OVC090 43 32.4 66% 40 30.04 0.0
10 01:55 W 3 10.00 Overcast OVC090 44.1 32.9 65% 30.03 0.0
10 01:35 W 3 10.00 Overcast OVC090 43.9 34 68% 30.03 0.0
10 01:15 W 6 10.00 Overcast OVC090 44.1 32.4 64% 41 30.02 0.0
10 00:55 W 6 10.00 Overcast OVC090 44.4 33.3 58.8 43.3 65% 42 30.02 0.0
10 00:35 W 5 10.00 Overcast OVC090 44.4 33.8 66% 42 30.01 0.0
10 00:15 SW 6 10.00 Overcast OVC090 45.1 32.2 61% 43 30.01 0.0
09 23:55 W 3 10.00 Overcast OVC090 46 31.1 56% 30.01 0.0
09 23:35 Calm 10.00 Overcast OVC090 46.2 29.8 53% 30.01 0.0
09 23:15 NW 3 9.00 Overcast OVC090 46.2 27.9 49% 30.01 0.0
09 22:55 Calm 10.00 Overcast OVC085 46 27.1 48% 30.01 0.0
09 22:35 Calm 10.00 Overcast OVC085 45.9 25.5 45% 30.01 0.0
09 22:15 Calm 10.00 Overcast OVC085 44.1 24.4 46% 30 0.0
09 21:55 N 7 10.00 A Few Clouds FEW085 45.3 25 45% 42 30 0.0
09 21:35 N 7 10.00 Fair CLR 46.9 24.8 42% 44 29.99 0.0
09 21:15 N 8 10.00 Fair CLR 47.8 25.3 41% 45 29.98 0.0
09 20:55 N 10 10.00 Fair CLR 50.9 25.3 37% 29.97 0.0
09 20:35 N 9 10.00 A Few Clouds FEW080 52.2 25.2 35% 29.96 0.0
09 20:15 N 13 10.00 Partly Cloudy SCT080 55.2 24.6 31% 29.95 0.0
09 19:55 N 14 10.00 Partly Cloudy SCT080 56.5 24.3 29% 29.94 0.0
09 19:35 NW 15 10.00 A Few Clouds FEW080 57.6 24.4 28% 29.94 0.0
09 19:15 N 17 10.00 A Few Clouds FEW080 58.1 24.4 27% 29.94 0.0
09 18:55 NW 22 G 29 10.00 Partly Cloudy and Breezy SCT080 59.2 24.1 60.6 56.7 26% 29.93 0.0
09 18:35 NW 18 10.00 A Few Clouds FEW080 59.2 23.5 25% 29.93 0.0
09 18:15 NW 17 10.00 A Few Clouds FEW080 59.7 23.7 25% 29.92 0.0
09 17:55 NW 20 G 26 10.00 A Few Clouds FEW080 59.9 23.7 25% 29.92 0.0
09 17:35 N 17 G 28 10.00 A Few Clouds FEW080 60.6 24.8 25% 29.91 0.0
09 17:15 N 21 G 25 10.00 Fair and Breezy CLR 59.5 25.2 27% 29.91 0.0
09 16:55 N 16 G 26 10.00 Fair CLR 60.3 25.7 27% 29.91 0.0
09 16:35 NW 18 G 26 10.00 Fair CLR 59.7 25.2 27% 29.91 0.0
09 16:15 N 23 10.00 Fair and Breezy CLR 60.4 26.2 27% 29.91 0.0
09 15:55 NW 18 G 29 10.00 A Few Clouds FEW070 59.5 25.9 28% 29.91 0.0
09 15:35 NW 24 G 28 10.00 A Few Clouds and Breezy FEW070 59.5 25.7 27% 29.91 0.0
09 15:15 N 22 G 32 10.00 Fair and Breezy CLR 59.2 26.1 28% 29.91 0.0
09 14:55 N 23 G 35 10.00 Fair and Breezy CLR 58.8 26.6 29% 29.91 0.0
09 14:35 N 26 G 32 10.00 Fair and Windy CLR 58.8 26.6 29% 29.91 0.0
09 14:15 N 21 G 31 10.00 Fair and Breezy CLR 58.3 26.8 30% 29.9 0.0
09 13:55 N 24 G 29 10.00 Fair and Breezy CLR 57.7 27 31% 29.9 0.0
09 13:35 NW 24 G 33 10.00 Fair and Breezy CLR 57.9 25.9 29% 29.9 0.0
09 13:15 N 23 G 31 10.00 A Few Clouds and Breezy FEW370 56.7 27.7 33% 29.89 0.0
09 12:55 N 28 G 37 10.00 Fair and Windy CLR 56.8 26.6 57.4 44.8 31% 29.89 0.0
09 12:35 NW 22 G 32 10.00 Fair and Breezy CLR 56.5 27.3 33% 29.89 0.0
09 12:15 NW 29 G 36 10.00 Fair and Windy CLR 57.4 28.4 33% 29.89 0.0
09 11:55 N 25 10.00 Fair and Breezy CLR 56.1 28.8 35% 29.88 0.0
09 11:35 NW 24 G 29 10.00 Fair and Breezy CLR 55.6 27.9 35% 29.87 0.0
09 11:15 N 22 G 29 10.00 Fair and Breezy CLR 54.9 27 34% 29.87 0.0
09 10:35 N 18 G 26 10.00 Fair CLR 54.3 28.2 37% 29.85 0.0
09 10:15 N 21 G 25 10.00 Fair and Breezy CLR 54.1 30.9 41% 29.84 0.0
09 09:55 N 20 10.00 Fair CLR 52.5 33.6 49% 29.83 0.0
09 09:35 N 18 10.00 Fair CLR 52 32.9 48% 29.83 0.0
09 09:15 N 18 10.00 Fair CLR 51.4 37.8 60% 29.82 0.0
09 08:55 N 18 10.00 Fair CLR 50 39.2 67% 44 29.81 0.0
09 08:35 N 18 10.00 Fair CLR 49.3 39.7 70% 43 29.8 0.0
09 08:15 N 18 G 25 10.00 Fair CLR 48.7 40.8 74% 43 29.79 0.0
09 07:55 N 16 10.00 Fair CLR 47.5 41.5 80% 42 29.78 0.0
09 07:35 N 14 9.00 Fair CLR 46.8 42.3 84% 41 29.77 0.0
09 07:15 N 14 9.00 Fair CLR 45.5 43 91% 40 29.76 0.0
09 06:55 NW 14 7.00 Fair CLR 44.6 43.2 51.6 44.2 95% 39 29.75 0.0
09 06:35 NW 14 7.00 Fair CLR 44.4 43.3 96% 38 29.74 0.0
09 06:15 N 14 8.00 A Few Clouds FEW055 44.6 43.3 95% 39 29.73 0.0
09 05:55 N 16 10.00 Overcast BKN011 OVC055 46.2 44.2 93% 40 29.72 0.0
09 05:35 N 20 G 24 10.00 Overcast BKN011 BKN060 OVC150 47.7 45.7 93% 41 29.71 0.0
09 05:15 NW 15 10.00 Mostly Cloudy FEW060 BKN150 BKN180 48.2 45.9 92% 43 29.7 0.0
09 04:55 NW 14 10.00 Overcast BKN140 OVC160 48.9 46.6 92% 44 29.69 0.0
09 04:35 NW 10 10.00 Overcast FEW036 OVC140 49.5 46.8 90% 46 29.68 0.0
09 04:15 NW 12 10.00 Overcast SCT036 SCT047 BKN065 OVC080 49.8 47.1 91% 46 29.67 0.0
09 03:55 NW 8 9.00 Light Rain OVC065 50.5 46.6 86% 29.65 0.0
09 03:35 SW 3 8.00 Light Rain OVC060 50 46.6 88% 29.64 0.0
09 03:15 N 8 8.00 Light Rain BKN065 OVC080 50.4 45.7 84% 29.67 0.0
09 02:55 N 14 10.00 Overcast BKN070 OVC095 51.6 44.2 76% 29.67 0.0
09 02:35 N 14 10.00 Overcast FEW075 OVC100 51.6 43.9 75% 29.66 0.0
09 02:15 N 13 10.00 Mostly Cloudy BKN110 50.9 42.1 72% 29.64 0.0
09 01:55 N 8 10.00 A Few Clouds FEW095 49.1 38.8 68% 46 29.62 0.0
09 01:35 N 8 10.00 Partly Cloudy SCT095 50 36.5 60% 47 29.62 0.0
09 01:15 N 12 10.00 Mostly Cloudy BKN090 51.4 34.9 53% 29.63 0.0
09 00:55 NW 6 10.00 Overcast OVC100 47.7 35.1 68 46.4 62% 45 29.62 0.0
09 00:35 NW 5 10.00 Mostly Cloudy BKN100 BKN110 46.9 34.3 62% 45 29.62 0.0
09 00:15 SW 7 10.00 Partly Cloudy FEW100 SCT120 48.6 32.9 55% 46 29.61 0.0
08 23:55 SW 8 10.00 A Few Clouds FEW120 52.3 32.5 47% 29.61 0.0
08 23:35 SW 9 10.00 Fair CLR 53.1 32.7 46% 29.61 0.0
08 23:15 SW 9 10.00 Fair CLR 54 32.5 44% 29.62 0.0
08 22:55 SW 7 10.00 Fair CLR 53.1 32.9 46% 29.63 0.0
08 22:35 SW 6 10.00 Fair CLR 53.2 32.4 45% 29.64 0.0
08 22:15 SW 7 10.00 Fair CLR 54.3 30.9 41% 29.64 0.0
08 21:55 W 6 10.00 Fair CLR 53.2 31.8 44% 29.64 0.0
08 21:35 W 5 10.00 Fair CLR 55 31.3 40% 29.64 0.0
08 21:15 NW 7 10.00 A Few Clouds FEW230 56.7 29.8 36% 29.65 0.0
08 20:55 NW 8 10.00 A Few Clouds FEW230 57.2 31.1 37% 29.65 0.0
08 20:35 NW 12 10.00 Fair CLR 60.3 30 32% 29.65 0.0
08 20:15 NW 14 10.00 Fair CLR 63.1 30.2 29% 29.65 0.0
08 19:55 N 18 10.00 Fair CLR 65.1 29.8 27% 29.65 0.0
08 19:35 N 16 10.00 Fair CLR 65.8 30 26% 29.65 0.0
08 19:15 NW 18 10.00 Fair CLR 67.1 29.3 24% 29.65 0.0
08 18:55 NW 24 G 29 10.00 Fair and Breezy CLR 68.2 29.3 73.9 68.2 23% 29.65 0.0
08 18:35 NW 23 G 31 10.00 Fair and Breezy CLR 68.7 27.3 21% 29.64 0.0
08 18:15 NW 25 G 31 10.00 Fair and Breezy CLR 70 28.9 22% 29.64 0.0
08 17:55 NW 22 G 32 10.00 Fair and Breezy CLR 70.7 28.4 21% 29.64 0.0
08 17:35 NW 26 G 35 10.00 Fair and Windy CLR 71.1 27.1 19% 29.64 0.0
08 17:15 NW 24 G 29 10.00 A Few Clouds and Breezy FEW100 71.6 26.1 18% 29.64 0.0
08 16:55 NW 29 G 32 10.00 Fair and Windy CLR 72.3 26.4 18% 29.63 0.0
08 16:35 NW 24 G 35 10.00 Fair and Breezy CLR 72.1 27.5 19% 29.63 0.0
08 16:15 NW 25 G 36 10.00 A Few Clouds and Breezy FEW100 72.7 27.3 18% 29.63 0.0
08 15:55 NW 28 10.00 Mostly Cloudy and Windy BKN095 73 29.5 20% 29.63 0.0
08 15:35 NW 22 G 30 10.00 Mostly Cloudy and Breezy BKN095 72.7 30.4 21% 29.63 0.0
08 15:15 W 12 G 32 10.00 Partly Cloudy SCT095 72 29.5 21% 29.63 0.0
08 14:55 NW 18 G 33 10.00 Partly Cloudy SCT095 72.3 30 21% 29.63 0.0
08 14:35 NW 18 10.00 Mostly Cloudy BKN095 70.5 29.5 22% 29.64 0.0
08 14:15 NW 22 G 31 10.00 Partly Cloudy and Breezy SCT095 72.1 28.6 20% 29.64 0.0
08 13:55 NW 21 G 30 10.00 Mostly Cloudy and Breezy BKN100 72 28 19% 29.64 0.0
08 13:35 NW 17 G 29 10.00 Mostly Cloudy BKN100 71.1 28.2 20% 29.65 0.0
08 13:15 NW 21 10.00 Mostly Cloudy and Breezy BKN095 71.6 28.6 20% 29.65 0.0
08 12:55 W 17 10.00 Mostly Cloudy BKN100 71.1 27 71.1 42.1 19% 29.66 0.0
08 12:35 W 15 10.00 Mostly Cloudy BKN100 69.3 27 20% 29.67 0.0
08 12:15 NW 16 10.00 Overcast OVC100 69.4 28.2 21% 29.68 0.0
08 11:55 W 14 G 23 10.00 Overcast OVC100 67.3 27.1 22% 29.69 0.0
08 11:35 W 12 10.00 Overcast OVC100 66 27 23% 29.7 0.0
08 11:15 W 13 G 17 10.00 Overcast OVC110 66.9 27.9 23% 29.7 0.0
08 10:55 W 7 10.00 Overcast OVC120 63.7 28.2 26% 29.71 0.0
08 10:35 W 13 10.00 Overcast BKN110 OVC130 63.7 28.8 27% 29.72 0.0
08 10:15 W 8 10.00 Mostly Cloudy BKN120 62.2 27.5 27% 29.72 0.0
08 09:55 W 9 10.00 Fair CLR 60.3 27.9 29% 29.73 0.0
08 09:35 W 7 10.00 Fair CLR 59.2 28 31% 29.74 0.0
08 09:15 NW 8 10.00 Fair CLR 57.6 27 31% 29.74 0.0
08 08:55 W 6 10.00 A Few Clouds FEW095 56.1 26.4 32% 29.75 0.0
08 08:35 NW 7 10.00 A Few Clouds FEW100 54.7 27 34% 29.75 0.0
08 08:15 NW 5 10.00 A Few Clouds FEW100 52.2 28.2 40% 29.75 0.0
08 07:55 W 3 10.00 Mostly Cloudy FEW100 BKN120 49.6 29.3 46% 29.75 0.0
08 07:35 W 3 10.00 Overcast BKN100 OVC120 47.5 31.3 54% 29.75 0.0
08 07:15 W 3 10.00 Overcast OVC100 44.1 31.1 60% 29.75 0.0
08 06:55 W 3 10.00 Overcast OVC095 41.2 32.4 45 39.7 71% 29.75 0.0
08 06:35 NW 3 10.00 Overcast OVC095 40.6 30.2 66% 29.75 0.0
08 06:15 SW 5 10.00 Overcast OVC095 41.5 27.7 58% 39 29.74 0.0
08 05:55 SW 3 10.00 Mostly Cloudy BKN090 BKN130 BKN160 41 26.8 57% 29.74 0.0
08 05:35 SW 3 10.00 Mostly Cloudy FEW090 BKN140 BKN160 41.2 26.2 55% 29.74 0.0
08 05:15 SW 3 10.00 Overcast BKN150 OVC170 40.6 27.3 59% 29.74 0.0
08 04:55 SW 5 10.00 Mostly Cloudy BKN170 41.4 25.9 54% 39 29.75 0.0
08 04:35 SW 5 10.00 Partly Cloudy SCT170 42.6 25.5 51% 40 29.75 0.0
08 04:15 SW 6 10.00 Fair CLR 43 25.7 51% 40 29.75 0.0
08 03:55 SW 7 10.00 Partly Cloudy SCT180 43.7 25.7 49% 40 29.75 0.0
08 03:35 SW 3 10.00 Partly Cloudy SCT180 42.4 26.1 52% 29.75 0.0
08 03:15 SW 6 10.00 Partly Cloudy SCT170 43.7 26.4 51% 41 29.76 0.0
08 02:55 SW 6 10.00 Mostly Cloudy BKN170 43.9 26.8 51% 41 29.76 0.0
08 02:35 SW 6 10.00 A Few Clouds FEW170 43.5 27 52% 41 29.76 0.0
08 02:15 SW 6 10.00 Fair CLR 42.6 26.4 53% 40 29.76 0.0
08 01:55 SW 6 9.00 Fair CLR 43.2 25.5 50% 40 29.77 0.0
08 01:35 SW 6 9.00 Fair CLR 43.2 25.3 49% 40 29.77 0.0
08 01:15 SW 5 10.00 Fair CLR 42.8 25.9 51% 41 29.77 0.0
08 00:55 SW 6 10.00 Fair CLR 45.5 25.2 60.6 45.5 45% 43 29.77 0.0
08 00:35 SW 7 10.00 Fair CLR 46.9 25.3 43% 44 29.77 0.0
08 00:15 SW 7 9.00 Fair CLR 46.2 26.8 47% 43 29.78 0.0
07 23:55 S 8 10.00 Fair CLR 46.8 26.8 46% 43 29.78 0.0
07 23:35 SW 7 10.00 Fair CLR 47.1 28 48% 44 29.78 0.0
07 23:15 S 8 10.00 Fair CLR 47.1 28.6 49% 44 29.78 0.0
07 22:55 SW 7 10.00 Fair CLR 49.6 26.8 41% 47 29.79 0.0
07 22:35 SW 6 10.00 Fair CLR 50.2 26.8 40% 29.79 0.0
07 22:15 SW 6 10.00 A Few Clouds FEW290 48 31.8 54% 46 29.79 0.0
07 21:55 SW 6 10.00 Fair CLR 51.8 29.1 42% 29.79 0.0
07 21:35 SW 6 10.00 Fair CLR 52.5 29.5 41% 29.79 0.0
07 21:15 SW 6 10.00 Fair CLR 52.9 23.7 32% 29.79 0.0
07 20:55 SW 7 9.00 Fair CLR 51.8 24.1 34% 29.79 0.0
07 20:35 W 7 10.00 A Few Clouds FEW210 53.1 24.1 32% 29.78 0.0
07 20:15 W 8 9.00 Partly Cloudy SCT210 57.2 23.2 27% 29.79 0.0
07 19:55 W 12 10.00 Partly Cloudy SCT210 59.9 20.8 22% 29.78 0.0
07 19:35 W 13 10.00 A Few Clouds FEW220 59.9 22.1 23% 29.79 0.0
07 19:15 NW 13 10.00 Fair CLR 59.7 22.5 24% 29.79 0.0
07 18:55 NW 10 10.00 Fair CLR 60.8 21.9 62.4 55.8 22% 29.79 0.0
07 18:35 W 14 10.00 Fair CLR 61 21.9 22% 29.79 0.0
07 18:15 W 13 G 17 10.00 Fair CLR 61.5 21 21% 29.8 0.0
07 17:55 W 9 10.00 Fair CLR 61.3 19.9 20% 29.8 0.0
07 17:35 NW 18 10.00 Fair CLR 61.9 20.3 20% 29.8 0.0
07 17:15 NW 17 G 22 10.00 Fair CLR 62.4 20.3 20% 29.8 0.0
07 16:55 NW 16 G 21 10.00 Fair CLR 61.5 20.3 20% 29.81 0.0
07 16:35 W 12 G 22 10.00 Fair CLR 61.7 20.5 20% 29.81 0.0
07 16:15 NW 10 G 23 10.00 Fair CLR 61.2 20.7 21% 29.81 0.0
07 15:55 NW 15 G 26 10.00 Fair CLR 60.8 21.9 22% 29.82 0.0
07 15:35 W 9 G 24 10.00 Fair CLR 59.9 21.4 23% 29.82 0.0
07 15:15 NW 12 G 24 10.00 Fair CLR 60.4 22.5 23% 29.83 0.0
07 14:55 W 13 G 17 10.00 A Few Clouds FEW080 60.1 23 24% 29.84 0.0
07 14:35 NW 13 G 18 10.00 A Few Clouds FEW080 59.5 22.6 24% 29.84 0.0
07 14:15 W 9 10.00 Fair CLR 58.1 21.2 24% 29.84 0.0
07 13:55 Vrbl 7 10.00 Fair CLR 56.3 20.3 25% 29.85 0.0
07 13:35 NW 16 G 21 10.00 Fair CLR 57.9 21.9 25% 29.85 0.0
07 13:15 NW 13 G 20 10.00 Fair CLR 56.8 18.5 22% 29.86 0.0
07 12:55 NW 15 G 23 10.00 Fair CLR 56.3 21.9 56.5 27 26% 29.86 0.0
07 12:35 N 10 10.00 A Few Clouds FEW070 55.6 21.2 26% 29.87 0.0
07 11:55 Vrbl 5 10.00 A Few Clouds FEW070 53.8 20.5 27% 29.88 0.0
07 11:35 Vrbl 5 10.00 Fair CLR 52 19.8 28% 29.89 0.0
07 11:15 W 6 10.00 Fair CLR 53.8 21.7 29% 29.89 0.0
Date Time (cdt) Wind (mph) Vis. (mi.) Weather Sky Cond. Air Dwpt Max. Min. Relative Humidity Wind Chill (°F) Heat Index (°F) altimeter (in) sea level (mb) 1 hr 3 hr 6 hr
6 hour
Temperature (ºF) Pressure Precipitation (in)